createdAt,value
2023-02-20T00:00:03.788Z,995.3832
2023-02-20T00:01:01.637Z,995.3693
2023-02-20T00:02:02.131Z,995.3127
2023-02-20T00:03:01.567Z,995.3549
2023-02-20T00:04:02.034Z,995.4683
2023-02-20T00:05:01.555Z,995.3689
2023-02-20T00:06:02.037Z,995.3973
2023-02-20T00:07:01.492Z,995.4466
2023-02-20T00:08:01.964Z,995.4819
2023-02-20T00:09:02.464Z,995.4819
2023-02-20T00:10:03.784Z,995.5103
2023-02-20T00:11:01.633Z,995.2199
2023-02-20T00:12:02.129Z,995.4819
2023-02-20T00:13:01.570Z,995.2976
2023-02-20T00:14:02.032Z,995.5243
2023-02-20T00:15:01.479Z,995.2693
2023-02-20T00:16:02.025Z,995.6079
2023-02-20T00:17:01.487Z,995.6079
2023-02-20T00:18:01.950Z,995.4178
2023-02-20T00:19:01.381Z,995.3328
2023-02-20T00:20:01.891Z,995.453
2023-02-20T00:21:01.316Z,995.3963
2023-02-20T00:22:01.818Z,995.3611
2023-02-20T00:23:02.265Z,995.6079
2023-02-20T00:24:03.467Z,995.2478
2023-02-20T00:25:02.273Z,995.6785
2023-02-20T00:26:01.722Z,995.6079
2023-02-20T00:27:02.200Z,995.6079
2023-02-20T00:28:01.713Z,995.2836
2023-02-20T00:29:02.201Z,995.5172
2023-02-20T00:30:03.370Z,995.5172
2023-02-20T00:31:02.154Z,995.3119
2023-02-20T00:32:01.718Z,995.3259
2023-02-20T00:33:02.134Z,995.5243
2023-02-20T00:34:01.560Z,995.2478
2023-02-20T00:35:03.714Z,995.2761
2023-02-20T00:36:01.473Z,995.3038
2023-02-20T00:37:01.982Z,995.382
2023-02-20T00:38:01.485Z,995.3328
2023-02-20T00:39:01.955Z,995.2119
2023-02-20T00:40:01.401Z,995.4387
2023-02-20T00:41:01.881Z,995.3184
2023-02-20T00:42:01.426Z,995.106
2023-02-20T00:43:01.895Z,995.2194
2023-02-20T00:44:02.999Z,995.1911
2023-02-20T00:45:03.485Z,995.2617
2023-02-20T00:46:02.308Z,995.2119
2023-02-20T00:47:03.503Z,995.1766
2023-02-20T00:48:02.282Z,995.1696
2023-02-20T00:49:01.724Z,995.2333
2023-02-20T00:50:02.212Z,995.1696
2023-02-20T00:51:01.713Z,995.205
2023-02-20T00:52:02.203Z,995.2403
2023-02-20T00:53:01.657Z,995.2119
2023-02-20T00:54:03.799Z,995.1904
2023-02-20T00:55:01.559Z,995.2681
2023-02-20T00:56:03.704Z,995.3318
2023-02-20T00:57:01.567Z,995.4238
2023-02-20T00:58:02.070Z,995.3532
2023-02-20T00:59:01.489Z,995.3532
2023-02-20T01:00:01.952Z,995.2114
2023-02-20T01:01:01.494Z,995.2965
2023-02-20T01:02:01.957Z,995.3532
2023-02-20T01:03:03.146Z,995.2965
2023-02-20T01:04:01.893Z,995.1831
2023-02-20T01:05:01.388Z,995.2471
2023-02-20T01:06:03.474Z,995.3248
2023-02-20T01:07:01.316Z,995.1547
2023-02-20T01:08:01.797Z,995.2681
2023-02-20T01:09:03.225Z,995.3248
2023-02-20T01:10:01.960Z,995.3532
2023-02-20T01:11:01.479Z,995.2398
2023-02-20T01:12:01.988Z,995.1264
2023-02-20T01:13:01.400Z,995.1831
2023-02-20T01:14:01.868Z,995.1264
2023-02-20T01:15:01.385Z,995.1264
2023-02-20T01:16:01.922Z,995.0697
2023-02-20T01:17:03.023Z,995.1831
2023-02-20T01:18:03.477Z,995.1542
2023-02-20T01:19:02.275Z,995.1042
2023-02-20T01:20:01.729Z,995.1743
2023-02-20T01:21:03.860Z,995.0605
2023-02-20T01:22:01.708Z,995.0958
2023-02-20T01:23:02.214Z,995.2018
2023-02-20T01:24:03.318Z,995.0739
2023-02-20T01:25:02.118Z,994.9395
2023-02-20T01:26:01.634Z,995.0455
2023-02-20T01:27:02.122Z,994.8898
2023-02-20T01:28:03.283Z,994.9604
2023-02-20T01:29:03.716Z,995.0455
2023-02-20T01:30:01.472Z,994.9604
2023-02-20T01:31:01.998Z,994.8614
2023-02-20T01:32:01.615Z,994.9609
2023-02-20T01:33:01.938Z,995.0814
2023-02-20T01:34:01.460Z,995.1595
2023-02-20T01:35:01.938Z,994.9256
2023-02-20T01:36:03.071Z,995.1664
2023-02-20T01:37:01.880Z,995.0883
2023-02-20T01:38:01.317Z,994.9963
2023-02-20T01:39:01.857Z,995.0883
2023-02-20T01:40:02.293Z,995.0032
2023-02-20T01:41:01.799Z,994.9395
2023-02-20T01:42:02.285Z,995.053
2023-02-20T01:43:01.722Z,995.0739
2023-02-20T01:44:02.197Z,994.9181
2023-02-20T01:45:01.659Z,995.2724
2023-02-20T01:46:02.201Z,995.0455
2023-02-20T01:47:01.638Z,994.9391
2023-02-20T01:48:03.788Z,994.9177
2023-02-20T01:49:01.543Z,995.0381
2023-02-20T01:50:02.153Z,995.0591
2023-02-20T01:51:01.557Z,995.0305
2023-02-20T01:52:02.035Z,994.7823
2023-02-20T01:53:01.492Z,995.1083
2023-02-20T01:54:02.029Z,994.8743
2023-02-20T01:55:01.496Z,995.1083
2023-02-20T01:56:01.958Z,995.1083
2023-02-20T01:57:01.397Z,995.0943
2023-02-20T01:58:01.964Z,994.952
2023-02-20T01:59:01.402Z,994.9166
2023-02-20T02:00:01.891Z,995.1789
2023-02-20T02:01:01.390Z,995.1436
2023-02-20T02:02:01.857Z,995.2143
2023-02-20T02:03:02.320Z,994.9087
2023-02-20T02:04:01.719Z,995.0222
2023-02-20T02:05:03.882Z,994.9938
2023-02-20T02:06:01.752Z,995.1213
2023-02-20T02:07:02.216Z,994.8519
2023-02-20T02:08:03.337Z,994.7668
2023-02-20T02:09:02.149Z,994.8519
2023-02-20T02:10:01.638Z,994.7952
2023-02-20T02:11:02.154Z,994.8519
2023-02-20T02:12:01.648Z,994.8519
2023-02-20T02:13:03.792Z,994.8803
2023-02-20T02:14:01.587Z,994.9938
2023-02-20T02:15:02.046Z,994.8519
2023-02-20T02:16:01.582Z,995.0506
2023-02-20T02:17:02.025Z,994.8519
2023-02-20T02:18:01.481Z,994.8519
2023-02-20T02:19:01.992Z,994.9371
2023-02-20T02:20:01.395Z,994.9655
2023-02-20T02:21:01.952Z,994.739
2023-02-20T02:22:01.409Z,994.9938
2023-02-20T02:23:03.562Z,994.7603
2023-02-20T02:24:01.358Z,994.6827
2023-02-20T02:25:01.794Z,994.6643
2023-02-20T02:26:02.267Z,994.6827
2023-02-20T02:27:01.793Z,994.6717
2023-02-20T02:28:02.264Z,994.6717
2023-02-20T02:29:01.768Z,994.6152
2023-02-20T02:30:02.277Z,994.665
2023-02-20T02:31:03.426Z,994.5799
2023-02-20T02:32:02.256Z,994.4241
2023-02-20T02:33:01.647Z,994.615
2023-02-20T02:34:02.125Z,994.5866
2023-02-20T02:35:01.655Z,994.5582
2023-02-20T02:36:02.111Z,994.4734
2023-02-20T02:37:03.254Z,994.615
2023-02-20T02:38:02.021Z,994.5298
2023-02-20T02:39:01.572Z,994.3951
2023-02-20T02:40:02.029Z,994.3806
2023-02-20T02:41:01.472Z,994.4657
2023-02-20T02:42:01.956Z,994.3806
2023-02-20T02:43:01.466Z,994.5225
2023-02-20T02:44:01.961Z,994.388
2023-02-20T02:45:01.387Z,994.3313
2023-02-20T02:46:01.943Z,994.4734
2023-02-20T02:47:01.391Z,994.2255
2023-02-20T02:48:01.893Z,994.3673
2023-02-20T02:49:01.320Z,994.3037
2023-02-20T02:50:01.842Z,994.2469
2023-02-20T02:51:02.280Z,994.3106
2023-02-20T02:52:01.807Z,994.006
2023-02-20T02:53:03.956Z,994.1194
2023-02-20T02:54:01.719Z,994.1623
2023-02-20T02:55:02.215Z,994.0772
2023-02-20T02:56:01.624Z,994.2972
2023-02-20T02:57:03.819Z,994.2549
2023-02-20T02:58:01.632Z,994.248
2023-02-20T02:59:02.114Z,994.2056
2023-02-20T03:00:01.559Z,994.3405
2023-02-20T03:01:03.777Z,994.135
2023-02-20T03:02:01.557Z,994.3405
2023-02-20T03:03:02.043Z,994.0783
2023-02-20T03:04:01.480Z,994.043
2023-02-20T03:05:01.981Z,994.043
2023-02-20T03:06:01.477Z,994.1565
2023-02-20T03:07:01.958Z,994.2415
2023-02-20T03:08:01.425Z,994.2415
2023-02-20T03:09:04.480Z,994.1495
2023-02-20T03:10:02.224Z,994.4684
2023-02-20T03:11:01.717Z,994.171
2023-02-20T03:12:02.203Z,994.3121
2023-02-20T03:13:01.657Z,994.3545
2023-02-20T03:14:02.133Z,994.2764
2023-02-20T03:15:01.574Z,994.3331
2023-02-20T03:16:02.117Z,994.1699
2023-02-20T03:17:01.560Z,994.3117
2023-02-20T03:18:03.736Z,994.1982
2023-02-20T03:19:01.498Z,994.0564
2023-02-20T03:20:01.969Z,994.2758
2023-02-20T03:21:03.159Z,994.2474
2023-02-20T03:22:01.957Z,994.1056
2023-02-20T03:23:01.400Z,994.2474
2023-02-20T03:24:01.918Z,994.127
2023-02-20T03:25:01.410Z,994.2896
2023-02-20T03:26:01.881Z,994.2613
2023-02-20T03:27:02.997Z,994.1618
2023-02-20T03:28:01.824Z,994.1618
2023-02-20T03:29:02.301Z,994.4164
2023-02-20T03:30:03.484Z,994.2748
2023-02-20T03:31:02.320Z,994.2532
2023-02-20T03:32:01.778Z,994.2955
2023-02-20T03:33:02.222Z,994.2387
2023-02-20T03:34:01.730Z,994.3661
2023-02-20T03:35:03.881Z,994.2242
2023-02-20T03:36:01.667Z,994.5498
2023-02-20T03:37:03.804Z,994.4079
2023-02-20T03:38:03.344Z,994.1675
2023-02-20T03:39:03.806Z,994.274
2023-02-20T03:40:01.567Z,994.2671
2023-02-20T03:41:02.051Z,994.2249
2023-02-20T03:42:03.175Z,994.2178
2023-02-20T03:43:01.981Z,994.182
2023-02-20T03:44:01.515Z,994.2178
2023-02-20T03:45:01.964Z,994.1613
2023-02-20T03:46:01.445Z,994.161
2023-02-20T03:47:01.895Z,994.2178
2023-02-20T03:48:01.413Z,994.161
2023-02-20T03:49:01.917Z,994.2671
2023-02-20T03:50:03.005Z,994.2173
2023-02-20T03:51:01.816Z,994.182
2023-02-20T03:52:02.288Z,994.4373
2023-02-20T03:53:01.736Z,994.161
2023-02-20T03:54:02.240Z,994.2748
2023-02-20T03:55:01.736Z,994.1971
2023-02-20T03:56:02.238Z,994.1833
2023-02-20T03:57:01.647Z,994.226
2023-02-20T03:58:02.123Z,994.3325
2023-02-20T03:59:01.649Z,994.1907
2023-02-20T04:00:02.129Z,994.2474
2023-02-20T04:01:01.637Z,994.1623
2023-02-20T04:02:02.114Z,994.2474
2023-02-20T04:03:01.564Z,994.219
2023-02-20T04:04:02.048Z,994.2758
2023-02-20T04:05:01.489Z,994.2121
2023-02-20T04:06:01.974Z,994.2758
2023-02-20T04:07:01.521Z,994.2405
2023-02-20T04:08:03.640Z,994.3464
2023-02-20T04:09:02.356Z,994.3464
2023-02-20T04:10:05.492Z,994.3464
2023-02-20T04:11:01.568Z,994.0772
2023-02-20T04:12:02.079Z,994.1623
2023-02-20T04:13:01.489Z,994.1976
2023-02-20T04:14:03.649Z,994.1837
2023-02-20T04:15:01.492Z,994.127
2023-02-20T04:16:03.641Z,994.3111
2023-02-20T04:17:01.426Z,994.4598
2023-02-20T04:18:01.898Z,994.2045
2023-02-20T04:19:01.410Z,994.2326
2023-02-20T04:20:01.930Z,994.1043
2023-02-20T04:22:01.817Z,994.3447
2023-02-20T04:23:02.294Z,994.295
2023-02-20T04:24:01.795Z,994.3228
2023-02-20T04:25:03.869Z,994.4432
2023-02-20T04:26:01.713Z,994.3083
2023-02-20T04:27:03.875Z,994.2868
2023-02-20T04:28:01.687Z,994.386
2023-02-20T04:29:02.117Z,994.3646
2023-02-20T04:30:01.637Z,994.3646
2023-02-20T04:31:02.160Z,994.1733
2023-02-20T04:32:01.586Z,994.138
2023-02-20T04:33:02.050Z,994.1809
2023-02-20T04:34:01.571Z,994.2376
2023-02-20T04:35:02.043Z,994.2376
2023-02-20T04:36:01.474Z,994.1241
2023-02-20T04:37:01.941Z,994.2376
2023-02-20T04:38:03.063Z,994.1248
2023-02-20T04:39:01.900Z,994.2028
2023-02-20T04:40:01.380Z,994.3228
2023-02-20T04:41:03.548Z,994.1809
2023-02-20T04:42:01.318Z,994.1241
2023-02-20T04:43:01.788Z,994.2301
2023-02-20T04:44:02.284Z,994.3083
2023-02-20T04:45:01.794Z,994.2231
2023-02-20T04:46:02.311Z,994.159
2023-02-20T04:47:03.386Z,994.3362
2023-02-20T04:48:02.198Z,994.3502
2023-02-20T04:49:01.643Z,994.2935
2023-02-20T04:50:02.116Z,994.2367
2023-02-20T04:51:03.343Z,994.3219
2023-02-20T04:52:02.094Z,994.407
2023-02-20T04:53:01.554Z,994.2725
2023-02-20T04:54:02.055Z,994.5349
2023-02-20T04:55:01.471Z,994.4428
2023-02-20T04:56:01.972Z,994.4144
2023-02-20T04:57:03.136Z,994.3934
2023-02-20T04:58:01.949Z,994.5563
2023-02-20T04:59:01.418Z,994.3436
2023-02-20T05:00:01.880Z,994.4144
2023-02-20T05:01:01.382Z,994.3786
2023-02-20T05:02:01.886Z,994.386
2023-02-20T05:03:02.989Z,994.2725
2023-02-20T05:04:03.496Z,994.2725
2023-02-20T05:05:02.363Z,994.159
2023-02-20T05:06:01.798Z,994.3646
2023-02-20T05:07:02.288Z,994.3009
2023-02-20T05:08:01.708Z,994.2725
2023-02-20T05:09:03.313Z,994.1166
2023-02-20T05:10:02.048Z,994.1096
2023-02-20T05:11:03.251Z,994.138
2023-02-20T05:12:02.020Z,993.9887
2023-02-20T05:13:01.472Z,994.0454
2023-02-20T05:14:02.028Z,994.2157
2023-02-20T05:15:01.466Z,994.2157
2023-02-20T05:16:01.997Z,994.1943
2023-02-20T05:17:01.445Z,994.159
2023-02-20T05:18:03.542Z,994.0454
2023-02-20T05:19:01.312Z,994.1166
2023-02-20T05:20:01.913Z,994.159
2023-02-20T05:21:02.985Z,994.0454
2023-02-20T05:22:01.814Z,994.2651
2023-02-20T05:23:02.264Z,994.1161
2023-02-20T05:24:06.099Z,994.2935
2023-02-20T05:25:03.942Z,994.2367
2023-02-20T05:26:01.710Z,994.1161
2023-02-20T05:27:02.212Z,994.2367
2023-02-20T05:28:01.630Z,994.2367
2023-02-20T05:29:02.140Z,994.2725
2023-02-20T05:30:03.310Z,994.138
2023-02-20T05:31:02.230Z,994.1943
2023-02-20T05:32:01.600Z,993.9672
2023-02-20T05:33:02.050Z,993.8542
2023-02-20T05:34:01.558Z,993.9887
2023-02-20T05:35:03.712Z,993.8757
2023-02-20T05:36:01.468Z,993.9677
2023-02-20T05:37:03.660Z,993.7836
2023-02-20T05:38:03.142Z,993.8686
2023-02-20T05:39:01.953Z,993.8969
2023-02-20T05:40:01.393Z,993.8184
2023-02-20T05:41:01.864Z,993.8393
2023-02-20T05:42:01.395Z,993.7402
2023-02-20T05:43:01.877Z,993.8532
2023-02-20T05:44:02.985Z,993.8108
2023-02-20T05:45:01.777Z,993.7049
2023-02-20T05:46:02.350Z,993.7049
2023-02-20T05:47:01.709Z,993.8108
2023-02-20T05:48:02.204Z,993.7826
2023-02-20T05:49:01.715Z,993.6898
2023-02-20T05:50:03.868Z,993.8532
2023-02-20T05:51:01.634Z,993.4702
2023-02-20T05:52:02.108Z,993.7826
2023-02-20T05:53:01.664Z,993.6625
2023-02-20T05:54:02.126Z,993.7049
2023-02-20T05:55:01.545Z,993.4354
2023-02-20T05:56:02.038Z,993.4494
2023-02-20T05:57:02.234Z,993.4778
2023-02-20T05:58:02.049Z,993.3294
2023-02-20T05:59:03.151Z,993.3863
2023-02-20T06:00:03.625Z,993.5566
2023-02-20T06:01:01.470Z,993.5566
2023-02-20T06:02:01.976Z,993.5566
2023-02-20T06:03:01.422Z,993.4014
2023-02-20T06:04:01.931Z,993.6133
2023-02-20T06:05:01.555Z,993.5566
2023-02-20T06:06:01.887Z,993.5566
2023-02-20T06:07:01.311Z,993.4285
2023-02-20T06:08:01.810Z,993.5566
2023-02-20T06:09:02.271Z,993.5566
2023-02-20T06:10:01.801Z,993.5566
2023-02-20T06:11:03.952Z,993.6701
2023-02-20T06:12:01.787Z,993.5566
2023-02-20T06:13:02.210Z,993.5566
2023-02-20T06:14:01.712Z,993.5566
2023-02-20T06:15:02.190Z,993.6133
2023-02-20T06:16:01.708Z,993.585
2023-02-20T06:17:02.102Z,993.585
2023-02-20T06:18:01.664Z,993.6203
2023-02-20T06:19:02.112Z,993.4638
2023-02-20T06:20:01.561Z,993.6272
2023-02-20T06:21:02.026Z,993.5919
2023-02-20T06:22:01.485Z,993.6625
2023-02-20T06:23:02.074Z,993.6272
2023-02-20T06:24:01.472Z,993.7123
2023-02-20T06:25:01.969Z,993.7049
2023-02-20T06:26:01.392Z,993.7192
2023-02-20T06:27:01.865Z,993.7402
2023-02-20T06:28:02.993Z,993.7402
2023-02-20T06:29:03.545Z,993.5694
2023-02-20T06:31:02.475Z,993.604
2023-02-20T06:32:02.363Z,993.4546
2023-02-20T06:33:01.725Z,993.4122
2023-02-20T06:34:03.898Z,993.5188
2023-02-20T06:35:01.720Z,993.4058
2023-02-20T06:36:02.190Z,993.491
2023-02-20T06:37:01.632Z,993.4129
2023-02-20T06:38:02.239Z,993.64
2023-02-20T06:39:01.631Z,993.4904
2023-02-20T06:40:02.152Z,993.505
2023-02-20T06:41:01.563Z,993.5756
2023-02-20T06:42:02.047Z,993.3554
2023-02-20T06:43:01.600Z,993.2633
2023-02-20T06:44:02.046Z,993.2457
2023-02-20T06:45:01.490Z,993.1887
2023-02-20T06:46:01.966Z,993.2639
2023-02-20T06:47:01.398Z,993.2173
2023-02-20T06:48:01.881Z,993.3277
2023-02-20T06:49:01.429Z,993.1106
2023-02-20T06:50:01.889Z,993.2595
2023-02-20T06:51:02.999Z,993.3554
2023-02-20T06:52:04.019Z,993.0671
2023-02-20T06:53:02.277Z,993.1441
2023-02-20T06:54:03.423Z,993.0878
2023-02-20T06:55:02.265Z,993.173
2023-02-20T06:56:01.718Z,993.074
2023-02-20T06:57:02.205Z,992.952
2023-02-20T06:58:01.667Z,992.909
2023-02-20T06:59:03.808Z,992.8944
2023-02-20T07:00:01.644Z,992.951
2023-02-20T07:01:02.138Z,993.0873
2023-02-20T07:02:01.592Z,993.0873
2023-02-20T07:03:02.142Z,993.1786
2023-02-20T07:04:02.904Z,993.2283
2023-02-20T07:05:03.722Z,993.2147
2023-02-20T07:06:01.489Z,993.1078
2023-02-20T07:07:02.035Z,993.2498
2023-02-20T07:08:02.472Z,993.1502
2023-02-20T07:09:03.881Z,993.1502
2023-02-20T07:10:03.303Z,993.1078
2023-02-20T07:11:02.212Z,992.9782
2023-02-20T07:12:01.649Z,993.2491
2023-02-20T07:13:02.152Z,993.1142
2023-02-20T07:14:01.564Z,993.2491
2023-02-20T07:15:02.047Z,993.3097
2023-02-20T07:16:01.600Z,993.3521
2023-02-20T07:17:03.732Z,993.323
2023-02-20T07:18:03.182Z,993.1626
2023-02-20T07:19:03.641Z,993.2332
2023-02-20T07:20:01.424Z,993.1973
2023-02-20T07:21:01.881Z,993.2332
2023-02-20T07:22:01.409Z,993.1764
2023-02-20T07:23:01.878Z,993.28
2023-02-20T07:24:03.025Z,993.1626
2023-02-20T07:25:01.808Z,993.0844
2023-02-20T07:26:02.291Z,993.1835
2023-02-20T07:27:03.735Z,993.1267
2023-02-20T07:28:02.347Z,993.148
2023-02-20T07:29:01.740Z,993.0489
2023-02-20T07:30:02.337Z,993.1267
2023-02-20T07:31:01.758Z,992.779
2023-02-20T07:32:02.369Z,992.9748
2023-02-20T07:33:01.655Z,992.7512
2023-02-20T07:34:02.126Z,992.911
2023-02-20T07:35:05.753Z,992.8143
2023-02-20T07:36:03.738Z,992.8964
2023-02-20T07:37:01.569Z,993.0032
2023-02-20T07:38:03.727Z,992.9249
2023-02-20T07:39:03.168Z,992.9671
2023-02-20T07:40:01.969Z,993.0603
2023-02-20T07:41:01.415Z,993.0088
2023-02-20T07:42:01.995Z,993.124
2023-02-20T07:43:01.413Z,992.9381
2023-02-20T07:44:02.088Z,993.0088
2023-02-20T07:45:01.330Z,992.8344
2023-02-20T07:46:01.865Z,992.931
2023-02-20T07:47:02.418Z,992.9304
2023-02-20T07:48:03.488Z,992.9873
2023-02-20T07:49:02.293Z,992.9444
2023-02-20T07:50:01.905Z,992.9222
2023-02-20T07:51:02.288Z,992.6836
2023-02-20T07:52:01.745Z,992.7405
2023-02-20T07:53:02.227Z,992.585
2023-02-20T07:54:03.422Z,992.7547
2023-02-20T07:55:02.137Z,992.6264
2023-02-20T07:56:01.652Z,992.7117
2023-02-20T07:57:02.165Z,992.6471
2023-02-20T07:58:01.575Z,992.7255
2023-02-20T07:59:02.045Z,992.6824
2023-02-20T08:00:03.247Z,992.7884
2023-02-20T08:01:02.047Z,992.9269
2023-02-20T08:02:03.199Z,992.6589
2023-02-20T08:03:03.646Z,992.8428
2023-02-20T08:04:01.488Z,992.6715
2023-02-20T08:05:02.038Z,992.7843
2023-02-20T08:06:03.096Z,992.6914
2023-02-20T08:07:01.918Z,992.5831
2023-02-20T08:08:02.394Z,992.5754
2023-02-20T08:09:02.144Z,992.6171
2023-02-20T08:10:01.560Z,992.5386
2023-02-20T08:11:08.899Z,992.5524
2023-02-20T08:12:03.236Z,992.6012
2023-02-20T08:13:02.053Z,992.6081
2023-02-20T08:14:01.488Z,992.5296
2023-02-20T08:15:01.997Z,992.622
2023-02-20T08:16:01.480Z,992.565
2023-02-20T08:17:01.902Z,992.6866
2023-02-20T08:18:01.428Z,992.7436
2023-02-20T08:19:03.581Z,992.5866
2023-02-20T08:20:01.331Z,992.408
2023-02-20T08:21:01.799Z,992.4788
2023-02-20T08:22:02.286Z,992.2581
2023-02-20T08:23:03.399Z,992.2786
2023-02-20T08:24:02.294Z,992.2993
2023-02-20T08:25:01.720Z,992.3131
2023-02-20T08:26:02.210Z,992.1776
2023-02-20T08:27:01.715Z,992.2057
2023-02-20T08:28:02.197Z,992.4105
2023-02-20T08:29:01.659Z,992.2109
2023-02-20T08:30:03.842Z,992.0108
2023-02-20T08:31:01.632Z,992.1316
2023-02-20T08:32:02.120Z,991.9391
2023-02-20T08:33:01.551Z,992.1234
2023-02-20T08:34:03.733Z,992.2225
2023-02-20T08:35:01.558Z,991.909
2023-02-20T08:36:03.680Z,992.0872
2023-02-20T08:37:01.496Z,992.1297
2023-02-20T08:38:03.756Z,992.101
2023-02-20T08:39:01.406Z,992.08
2023-02-20T08:40:01.883Z,991.9375
2023-02-20T08:41:01.389Z,992.08
2023-02-20T08:42:01.880Z,991.9092
2023-02-20T08:43:01.325Z,991.9801
2023-02-20T08:44:01.830Z,992.101
2023-02-20T08:45:02.286Z,992.1424
2023-02-20T08:46:01.828Z,991.7863
2023-02-20T08:47:02.272Z,992.1424
2023-02-20T08:48:01.907Z,991.7994
2023-02-20T08:49:03.957Z,991.8555
2023-02-20T08:50:01.703Z,991.9398
2023-02-20T08:51:02.200Z,991.9398
2023-02-20T08:52:01.620Z,991.8682
2023-02-20T08:53:02.191Z,992.0532
2023-02-20T08:54:01.632Z,991.8959
2023-02-20T08:55:02.167Z,991.9037
2023-02-20T08:56:03.262Z,992.1448
2023-02-20T08:57:02.104Z,991.9166
2023-02-20T08:58:01.554Z,991.9028
2023-02-20T08:59:02.029Z,991.647
2023-02-20T09:00:01.490Z,991.7247
2023-02-20T09:01:02.173Z,991.9513
2023-02-20T09:02:01.468Z,992.0151
2023-02-20T09:03:01.986Z,991.901
2023-02-20T09:04:01.481Z,991.7802
2023-02-20T09:05:01.966Z,991.9295
2023-02-20T09:06:01.384Z,991.9003
2023-02-20T09:07:01.958Z,992.0138
2023-02-20T09:08:02.400Z,991.9627
2023-02-20T09:09:02.198Z,991.7699
2023-02-20T09:10:01.642Z,991.9473
2023-02-20T09:11:02.135Z,992.0678
2023-02-20T09:12:01.549Z,991.8818
2023-02-20T09:13:02.030Z,991.9451
2023-02-20T09:14:01.547Z,991.7662
2023-02-20T09:15:02.044Z,991.7584
2023-02-20T09:16:01.473Z,992.0007
2023-02-20T09:17:01.970Z,991.8864
2023-02-20T09:18:03.444Z,991.7869
2023-02-20T09:19:03.548Z,991.8224
2023-02-20T09:20:01.405Z,991.9436
2023-02-20T09:21:01.878Z,991.7722
2023-02-20T09:22:01.339Z,991.7151
2023-02-20T09:23:01.794Z,991.6647
2023-02-20T09:24:02.275Z,991.7939
2023-02-20T09:25:01.798Z,991.7869
2023-02-20T09:26:03.963Z,991.7939
2023-02-20T09:27:01.768Z,991.8871
2023-02-20T09:28:02.223Z,991.7151
2023-02-20T09:29:01.632Z,991.9436
2023-02-20T09:30:02.222Z,991.9366
2023-02-20T09:31:03.238Z,991.8853
2023-02-20T09:32:02.231Z,992.0067
2023-02-20T09:33:01.562Z,991.7996
2023-02-20T09:34:02.038Z,991.8706
2023-02-20T09:35:01.570Z,991.799
2023-02-20T09:36:03.710Z,992.0199
2023-02-20T09:37:01.497Z,991.8699
2023-02-20T09:38:03.651Z,991.8338
2023-02-20T09:39:01.488Z,991.9402
2023-02-20T09:40:01.975Z,991.9047
2023-02-20T09:41:01.433Z,991.9757
2023-02-20T09:42:01.910Z,991.8545
2023-02-20T09:43:01.329Z,991.9974
2023-02-20T09:44:01.798Z,992.0043
2023-02-20T09:46:03.527Z,992.0322
2023-02-20T09:47:02.305Z,991.9672
2023-02-20T09:48:01.802Z,991.975
2023-02-20T09:49:02.290Z,992.053
2023-02-20T09:50:01.744Z,991.9672
2023-02-20T09:51:03.883Z,991.8529
2023-02-20T09:52:01.648Z,991.8529
2023-02-20T09:53:02.123Z,991.9672
2023-02-20T09:54:03.315Z,991.8244
2023-02-20T09:55:02.175Z,991.988
2023-02-20T09:56:01.583Z,991.6522
2023-02-20T09:57:02.057Z,991.802
2023-02-20T09:58:01.570Z,991.9588
2023-02-20T09:59:02.049Z,991.9016
2023-02-20T10:00:05.164Z,991.9583
2023-02-20T10:01:01.994Z,991.9869
2023-02-20T10:02:03.312Z,991.8438
2023-02-20T10:03:02.010Z,991.9869
2023-02-20T10:04:01.414Z,991.8438
2023-02-20T10:05:02.122Z,992.0291
2023-02-20T10:06:01.440Z,991.6646
2023-02-20T10:07:01.879Z,991.8438
2023-02-20T10:08:02.995Z,991.7504
2023-02-20T10:09:01.791Z,991.7002
2023-02-20T10:10:02.277Z,991.5858
2023-02-20T10:11:01.739Z,991.6575
2023-02-20T10:12:03.869Z,991.5867
2023-02-20T10:13:01.712Z,991.9148
2023-02-20T10:14:02.190Z,991.8438
2023-02-20T10:15:01.629Z,991.9219
2023-02-20T10:16:02.198Z,991.9219
2023-02-20T10:17:01.679Z,991.5865
2023-02-20T10:18:02.118Z,991.9148
2023-02-20T10:19:01.557Z,991.9148
2023-02-20T10:20:02.055Z,991.6497
2023-02-20T10:21:01.594Z,991.628
2023-02-20T10:22:02.083Z,991.6418
2023-02-20T10:23:01.478Z,991.6201
2023-02-20T10:24:05.979Z,991.5978
2023-02-20T10:25:01.492Z,991.45
2023-02-20T10:26:02.002Z,991.6107
2023-02-20T10:27:01.406Z,991.3983
2023-02-20T10:28:01.877Z,991.4331
2023-02-20T10:29:03.032Z,991.4252
2023-02-20T10:30:01.876Z,991.4174
2023-02-20T10:31:02.328Z,991.4784
2023-02-20T10:32:01.853Z,991.4026
2023-02-20T10:33:03.954Z,991.5917
2023-02-20T10:34:01.731Z,991.0938
2023-02-20T10:35:02.241Z,991.2786
2023-02-20T10:36:01.716Z,991.5324
2023-02-20T10:37:02.194Z,991.3334
2023-02-20T10:38:01.635Z,991.4725
2023-02-20T10:39:02.285Z,991.1389
2023-02-20T10:40:01.676Z,991.3658
2023-02-20T10:41:02.113Z,991.3646
2023-02-20T10:42:03.350Z,991.6332
2023-02-20T10:43:02.126Z,991.1987
2023-02-20T10:44:01.556Z,991.4054
2023-02-20T10:45:02.044Z,991.3343
2023-02-20T10:46:01.636Z,991.4186
2023-02-20T10:47:03.819Z,991.1893
2023-02-20T10:48:01.505Z,991.173
2023-02-20T10:49:01.958Z,991.1642
2023-02-20T10:50:03.196Z,991.2356
2023-02-20T10:51:01.952Z,991.2502
2023-02-20T10:52:01.397Z,991.2936
2023-02-20T10:53:01.893Z,991.3952
2023-02-20T10:54:01.418Z,991.2294
2023-02-20T10:55:01.898Z,990.9637
2023-02-20T10:56:03.035Z,991.0062
2023-02-20T10:57:03.487Z,991.205
2023-02-20T10:58:02.315Z,991.1258
2023-02-20T10:59:01.795Z,991.1607
2023-02-20T11:00:02.290Z,991.159
2023-02-20T11:01:01.850Z,991.1521
2023-02-20T11:02:04.048Z,991.1006
2023-02-20T11:03:01.738Z,990.9859
2023-02-20T11:04:02.307Z,991.0643
2023-02-20T11:05:03.331Z,991.4277
2023-02-20T11:06:02.119Z,990.9685
2023-02-20T11:07:04.237Z,990.7153
2023-02-20T11:08:01.889Z,990.9242
2023-02-20T11:09:03.003Z,991.0526
2023-02-20T11:10:01.797Z,990.9598
2023-02-20T11:11:02.287Z,990.7499
2023-02-20T11:12:01.804Z,990.8276
2023-02-20T11:13:02.284Z,990.913
2023-02-20T11:14:01.721Z,991.0268
2023-02-20T11:15:02.260Z,991.1192
2023-02-20T11:16:01.863Z,990.8745
2023-02-20T11:17:03.800Z,990.9456
2023-02-20T11:18:01.633Z,991.003
2023-02-20T11:19:02.126Z,990.9307
2023-02-20T11:20:03.276Z,990.8717
2023-02-20T11:21:03.722Z,991.1303
2023-02-20T11:22:01.694Z,991.059
2023-02-20T11:23:02.054Z,990.8212
2023-02-20T11:24:01.480Z,990.9074
2023-02-20T11:25:03.658Z,990.9859
2023-02-20T11:26:01.542Z,991.0946
2023-02-20T11:27:01.962Z,990.8735
2023-02-20T11:28:01.420Z,991.005
2023-02-20T11:29:02.250Z,991.0852
2023-02-20T11:30:01.393Z,990.8571
2023-02-20T11:31:01.952Z,990.8004
2023-02-20T11:32:01.414Z,990.6925
2023-02-20T11:33:01.801Z,990.6925
2023-02-20T11:34:02.328Z,990.8796
2023-02-20T11:35:01.948Z,990.7807
2023-02-20T11:36:03.877Z,990.5954
2023-02-20T11:37:01.731Z,990.7822
2023-02-20T11:38:02.223Z,990.6961
2023-02-20T11:39:03.402Z,990.7822
2023-02-20T11:40:02.198Z,990.8893
2023-02-20T11:41:03.325Z,990.6231
2023-02-20T11:42:03.795Z,990.6736
2023-02-20T11:43:01.569Z,990.5798
2023-02-20T11:44:02.042Z,990.6946
2023-02-20T11:45:01.597Z,990.6441
2023-02-20T11:46:02.052Z,990.7797
2023-02-20T11:47:01.483Z,990.6074
2023-02-20T11:48:01.995Z,990.7797
2023-02-20T11:49:03.255Z,990.7143